createdAt,value
2018-04-20T00:01:09.946Z,13
2018-04-20T00:11:09.158Z,12.7
2018-04-20T00:21:08.539Z,13
2018-04-20T00:31:07.685Z,12.6
2018-04-20T00:41:06.871Z,12.7
2018-04-20T00:51:06.315Z,12.7
2018-04-20T01:01:05.238Z,12.5
2018-04-20T01:11:04.478Z,13
2018-04-20T01:21:03.981Z,12.8
2018-04-20T01:31:03.184Z,12.9
2018-04-20T01:41:02.107Z,12.6
2018-04-20T01:51:01.373Z,12.4
2018-04-20T02:01:00.555Z,13.2
2018-04-20T02:11:00.061Z,12.9
2018-04-20T02:20:58.978Z,13.2
2018-04-20T02:30:58.851Z,12.7
2018-04-20T02:40:57.691Z,12.4
2018-04-20T02:50:56.960Z,12.9
2018-04-20T03:00:55.847Z,13.1
2018-04-20T03:10:55.063Z,13.2
2018-04-20T03:20:54.296Z,12.6
2018-04-20T03:30:53.557Z,12.7
2018-04-20T03:40:52.713Z,13.1
2018-04-20T03:50:51.942Z,12.6
2018-04-20T04:00:51.168Z,13.1
2018-04-20T04:10:50.407Z,12.7
2018-04-20T04:20:49.594Z,12.5
2018-04-20T04:30:48.811Z,13
2018-04-20T04:40:48.026Z,12.8
2018-04-20T04:50:47.291Z,12.7
2018-04-20T05:00:46.471Z,12.8
2018-04-20T05:10:45.726Z,13.2
2018-04-20T05:20:44.918Z,13.1
2018-04-20T05:30:44.108Z,13.3
2018-04-20T05:40:43.330Z,13.3
2018-04-20T05:50:42.560Z,12.8
2018-04-20T06:00:41.756Z,12.9
2018-04-20T06:10:40.978Z,13.5
2018-04-20T06:20:40.188Z,13.7
2018-04-20T06:30:39.404Z,13.5
2018-04-20T06:40:38.676Z,13.9
2018-04-20T06:50:37.866Z,13.3
2018-04-20T07:00:37.064Z,14.1
2018-04-20T07:10:36.708Z,14.4
2018-04-20T07:20:35.491Z,14
2018-04-20T07:30:34.830Z,13.8
2018-04-20T07:40:33.916Z,14.5
2018-04-20T07:50:33.201Z,14.4
2018-04-20T08:00:32.353Z,14
2018-04-20T08:10:31.619Z,14.3
2018-04-20T08:20:30.790Z,14.1
2018-04-20T08:30:30.050Z,13.9
2018-04-20T08:40:29.221Z,14.3
2018-04-20T08:50:28.518Z,14.1
2018-04-20T09:00:27.645Z,13.9
2018-04-20T09:10:27.156Z,14.5
2018-04-20T09:20:26.091Z,14
2018-04-20T09:30:25.360Z,14.2
2018-04-20T09:40:24.508Z,14.4
2018-04-20T09:50:23.724Z,14.4
2018-04-20T10:00:22.953Z,14.7
2018-04-20T10:10:22.163Z,14
2018-04-20T10:20:21.681Z,14.5
2018-04-20T10:30:20.653Z,14.2
2018-04-20T10:40:19.810Z,14
2018-04-20T10:50:19.026Z,14
2018-04-20T11:00:18.252Z,14.4
2018-04-20T11:10:17.484Z,13.8
2018-04-20T11:20:16.671Z,14.2
2018-04-20T11:30:15.891Z,14.7
2018-04-20T11:40:15.117Z,14
2018-04-20T11:50:14.330Z,14
2018-04-20T12:00:13.539Z,14.3
2018-04-20T12:10:12.788Z,14.4
2018-04-20T12:20:11.985Z,13.8
2018-04-20T12:30:11.199Z,14.3
2018-04-20T12:40:10.694Z,14.4
2018-04-20T12:50:09.670Z,14.7
2018-04-20T13:00:09.138Z,14.5
2018-04-20T13:10:08.367Z,14
2018-04-20T13:20:07.272Z,14.4
2018-04-20T13:30:06.538Z,14.7
2018-04-20T13:40:05.694Z,14.7
2018-04-20T13:50:04.923Z,14
2018-04-20T14:00:04.129Z,14
2018-04-20T14:10:03.438Z,14.3
2018-04-20T14:20:02.873Z,14
2018-04-20T14:30:02.107Z,14.7
2018-04-20T14:40:00.987Z,14.3
2018-04-20T14:50:00.198Z,14.5
2018-04-20T14:59:59.745Z,13.7
2018-04-20T15:09:58.948Z,12.9
2018-04-20T15:19:57.892Z,12.9
2018-04-20T15:29:57.051Z,12.5
2018-04-20T15:39:56.861Z,12.6
2018-04-20T15:49:55.495Z,12.5
2018-04-20T15:59:54.692Z,13.2
2018-04-20T16:09:53.926Z,13
2018-04-20T16:19:53.262Z,13.1
2018-04-20T16:29:52.356Z,13.2
2018-04-20T16:39:51.598Z,12.7
2018-04-20T16:49:50.776Z,12.6
2018-04-20T16:59:49.984Z,13
2018-04-20T17:09:49.195Z,12.7
2018-04-20T17:19:48.410Z,12.7
2018-04-20T17:29:47.648Z,13.2
2018-04-20T17:39:47.148Z,13.1
2018-04-20T17:49:46.345Z,12.6
2018-04-20T17:59:45.442Z,13.1
2018-04-20T18:09:44.491Z,13.2
2018-04-20T18:19:43.725Z,12.8
2018-04-20T18:29:43.207Z,13
2018-04-20T18:39:42.129Z,12.9
2018-04-20T18:49:41.684Z,12.7
2018-04-20T18:59:40.576Z,12.6
2018-04-20T19:09:39.781Z,13
2018-04-20T19:19:39.015Z,13.1
2018-04-20T19:29:38.267Z,13
2018-04-20T19:39:37.431Z,13
2018-04-20T19:49:36.631Z,12.9
2018-04-20T19:59:35.902Z,12.9
2018-04-20T20:09:35.083Z,13.2
2018-04-20T20:19:34.328Z,13
2018-04-20T20:29:33.765Z,13.1
2018-04-20T20:39:32.693Z,12.7
2018-04-20T20:49:31.910Z,12.9
2018-04-20T20:59:31.418Z,13
2018-04-20T21:09:30.355Z,12.5
2018-04-20T21:19:29.555Z,13
2018-04-20T21:29:28.845Z,12.5
2018-04-20T21:39:27.983Z,13
2018-04-20T21:49:27.251Z,13
2018-04-20T21:59:26.698Z,13.1
2018-04-20T22:09:25.639Z,13.2
2018-04-20T22:19:24.861Z,13.1
2018-04-20T22:29:24.352Z,13.1
2018-04-20T22:39:23.337Z,13.2
2018-04-20T22:49:22.506Z,12.8
2018-04-20T22:59:21.727Z,12.6
2018-04-20T23:09:20.929Z,13.1
2018-04-20T23:19:20.129Z,13
2018-04-20T23:29:19.343Z,13.1
2018-04-20T23:39:18.554Z,13.1
2018-04-20T23:49:18.144Z,12.5
2018-04-20T23:59:17.004Z,12.7
